sensor_id;sensor_type;location;lat;lon;timestamp;P1;durP1;ratioP1;P2;durP2;ratioP2
47365;SDS011;33105;47.964;7.982;2022-12-24T00:00:30;6.72;;;1.25;;
47365;SDS011;33105;47.964;7.982;2022-12-24T00:03:32;3.25;;;0.93;;
47365;SDS011;33105;47.964;7.982;2022-12-24T00:06:35;7.57;;;1.20;;
47365;SDS011;33105;47.964;7.982;2022-12-24T00:09:37;4.30;;;1.15;;
47365;SDS011;33105;47.964;7.982;2022-12-24T00:12:38;3.50;;;1.05;;
47365;SDS011;33105;47.964;7.982;2022-12-24T00:15:40;6.40;;;1.27;;
47365;SDS011;33105;47.964;7.982;2022-12-24T00:18:42;6.38;;;1.17;;
47365;SDS011;33105;47.964;7.982;2022-12-24T00:21:43;5.18;;;1.40;;
47365;SDS011;33105;47.964;7.982;2022-12-24T00:24:45;7.00;;;1.60;;
47365;SDS011;33105;47.964;7.982;2022-12-24T00:27:47;6.57;;;1.40;;
47365;SDS011;33105;47.964;7.982;2022-12-24T00:30:48;5.63;;;1.65;;
47365;SDS011;33105;47.964;7.982;2022-12-24T00:33:50;5.40;;;1.55;;
47365;SDS011;33105;47.964;7.982;2022-12-24T00:36:55;7.65;;;1.45;;
47365;SDS011;33105;47.964;7.982;2022-12-24T00:39:57;9.23;;;1.70;;
47365;SDS011;33105;47.964;7.982;2022-12-24T00:43:00;3.60;;;0.90;;
47365;SDS011;33105;47.964;7.982;2022-12-24T00:46:02;6.90;;;1.35;;
47365;SDS011;33105;47.964;7.982;2022-12-24T00:49:04;5.68;;;1.50;;
47365;SDS011;33105;47.964;7.982;2022-12-24T00:52:06;3.58;;;1.40;;
47365;SDS011;33105;47.964;7.982;2022-12-24T00:55:07;8.80;;;1.55;;
47365;SDS011;33105;47.964;7.982;2022-12-24T00:58:10;7.68;;;1.70;;
47365;SDS011;33105;47.964;7.982;2022-12-24T01:01:11;7.18;;;1.30;;
47365;SDS011;33105;47.964;7.982;2022-12-24T01:04:13;6.40;;;1.30;;
47365;SDS011;33105;47.964;7.982;2022-12-24T01:07:34;8.57;;;1.70;;
47365;SDS011;33105;47.964;7.982;2022-12-24T01:10:36;11.98;;;1.42;;
47365;SDS011;33105;47.964;7.982;2022-12-24T01:13:38;3.88;;;1.35;;
47365;SDS011;33105;47.964;7.982;2022-12-24T01:16:40;6.68;;;1.27;;
47365;SDS011;33105;47.964;7.982;2022-12-24T01:19:42;5.13;;;1.52;;
47365;SDS011;33105;47.964;7.982;2022-12-24T01:22:44;5.85;;;1.15;;
47365;SDS011;33105;47.964;7.982;2022-12-24T01:25:45;5.90;;;1.27;;
47365;SDS011;33105;47.964;7.982;2022-12-24T01:28:48;5.25;;;1.25;;
47365;SDS011;33105;47.964;7.982;2022-12-24T01:31:50;3.58;;;1.20;;
47365;SDS011;33105;47.964;7.982;2022-12-24T01:34:52;4.45;;;1.15;;
47365;SDS011;33105;47.964;7.982;2022-12-24T01:37:54;7.13;;;1.42;;
47365;SDS011;33105;47.964;7.982;2022-12-24T01:40:55;7.07;;;1.30;;
47365;SDS011;33105;47.964;7.982;2022-12-24T01:47:31;4.85;;;1.30;;
47365;SDS011;33105;47.964;7.982;2022-12-24T01:50:33;2.67;;;0.93;;
47365;SDS011;33105;47.964;7.982;2022-12-24T01:53:35;4.25;;;1.20;;
47365;SDS011;33105;47.964;7.982;2022-12-24T01:56:43;7.63;;;1.40;;
47365;SDS011;33105;47.964;7.982;2022-12-24T01:59:51;5.28;;;1.35;;
47365;SDS011;33105;47.964;7.982;2022-12-24T02:02:58;2.45;;;1.13;;
47365;SDS011;33105;47.964;7.982;2022-12-24T02:05:59;4.90;;;1.38;;
47365;SDS011;33105;47.964;7.982;2022-12-24T02:09:03;9.95;;;1.38;;
47365;SDS011;33105;47.964;7.982;2022-12-24T02:12:05;10.75;;;2.25;;
47365;SDS011;33105;47.964;7.982;2022-12-24T02:15:09;8.65;;;1.33;;
47365;SDS011;33105;47.964;7.982;2022-12-24T02:18:55;10.38;;;1.60;;
47365;SDS011;33105;47.964;7.982;2022-12-24T02:22:00;7.80;;;1.65;;
47365;SDS011;33105;47.964;7.982;2022-12-24T02:28:27;10.38;;;1.40;;
47365;SDS011;33105;47.964;7.982;2022-12-24T02:34:54;10.02;;;1.50;;
47365;SDS011;33105;47.964;7.982;2022-12-24T02:38:27;7.25;;;1.40;;
47365;SDS011;33105;47.964;7.982;2022-12-24T02:41:49;11.00;;;1.70;;
47365;SDS011;33105;47.964;7.982;2022-12-24T02:45:49;5.55;;;1.25;;
47365;SDS011;33105;47.964;7.982;2022-12-24T02:48:43;6.97;;;1.40;;
47365;SDS011;33105;47.964;7.982;2022-12-24T02:51:49;8.13;;;1.60;;
47365;SDS011;33105;47.964;7.982;2022-12-24T02:54:51;11.95;;;1.60;;
47365;SDS011;33105;47.964;7.982;2022-12-24T03:07:59;12.38;;;1.80;;
47365;SDS011;33105;47.964;7.982;2022-12-24T03:11:22;12.85;;;2.20;;
47365;SDS011;33105;47.964;7.982;2022-12-24T03:14:27;11.35;;;1.67;;
47365;SDS011;33105;47.964;7.982;2022-12-24T03:17:31;13.02;;;2.15;;
47365;SDS011;33105;47.964;7.982;2022-12-24T03:24:16;10.77;;;2.10;;
47365;SDS011;33105;47.964;7.982;2022-12-24T03:27:18;13.43;;;2.25;;
47365;SDS011;33105;47.964;7.982;2022-12-24T03:30:20;11.95;;;2.10;;
47365;SDS011;33105;47.964;7.982;2022-12-24T03:33:24;10.20;;;1.90;;
47365;SDS011;33105;47.964;7.982;2022-12-24T03:36:26;11.05;;;2.10;;
47365;SDS011;33105;47.964;7.982;2022-12-24T03:39:30;10.80;;;1.95;;
47365;SDS011;33105;47.964;7.982;2022-12-24T03:42:32;15.82;;;1.90;;
47365;SDS011;33105;47.964;7.982;2022-12-24T03:45:34;11.23;;;1.90;;
47365;SDS011;33105;47.964;7.982;2022-12-24T03:48:37;9.68;;;2.13;;
47365;SDS011;33105;47.964;7.982;2022-12-24T03:51:38;13.57;;;2.30;;
47365;SDS011;33105;47.964;7.982;2022-12-24T03:54:40;12.60;;;2.03;;
47365;SDS011;33105;47.964;7.982;2022-12-24T03:57:42;9.40;;;1.80;;
47365;SDS011;33105;47.964;7.982;2022-12-24T04:00:49;12.63;;;2.05;;
47365;SDS011;33105;47.964;7.982;2022-12-24T04:03:52;11.40;;;2.35;;
47365;SDS011;33105;47.964;7.982;2022-12-24T04:06:54;8.07;;;1.73;;
47365;SDS011;33105;47.964;7.982;2022-12-24T04:09:56;9.80;;;1.70;;
47365;SDS011;33105;47.964;7.982;2022-12-24T04:13:00;7.95;;;1.88;;
47365;SDS011;33105;47.964;7.982;2022-12-24T04:16:04;9.73;;;1.92;;
47365;SDS011;33105;47.964;7.982;2022-12-24T04:19:08;10.30;;;1.83;;
47365;SDS011;33105;47.964;7.982;2022-12-24T04:22:09;10.77;;;1.98;;
47365;SDS011;33105;47.964;7.982;2022-12-24T04:25:11;9.60;;;2.00;;
47365;SDS011;33105;47.964;7.982;2022-12-24T04:28:12;10.73;;;1.90;;
47365;SDS011;33105;47.964;7.982;2022-12-24T04:31:15;8.90;;;1.98;;
47365;SDS011;33105;47.964;7.982;2022-12-24T04:34:19;15.63;;;3.08;;
47365;SDS011;33105;47.964;7.982;2022-12-24T04:37:23;9.77;;;2.10;;
47365;SDS011;33105;47.964;7.982;2022-12-24T04:40:28;14.52;;;2.35;;
47365;SDS011;33105;47.964;7.982;2022-12-24T04:43:29;7.80;;;1.92;;
47365;SDS011;33105;47.964;7.982;2022-12-24T04:46:32;11.63;;;2.17;;
47365;SDS011;33105;47.964;7.982;2022-12-24T04:49:36;13.98;;;2.33;;
47365;SDS011;33105;47.964;7.982;2022-12-24T04:52:38;9.27;;;2.35;;
47365;SDS011;33105;47.964;7.982;2022-12-24T04:55:44;13.38;;;1.73;;
47365;SDS011;33105;47.964;7.982;2022-12-24T04:58:46;12.57;;;2.67;;
47365;SDS011;33105;47.964;7.982;2022-12-24T05:01:48;11.85;;;1.90;;
47365;SDS011;33105;47.964;7.982;2022-12-24T05:04:52;16.92;;;2.42;;
47365;SDS011;33105;47.964;7.982;2022-12-24T05:07:54;13.73;;;1.80;;
47365;SDS011;33105;47.964;7.982;2022-12-24T05:10:56;16.55;;;2.33;;
47365;SDS011;33105;47.964;7.982;2022-12-24T05:13:58;15.63;;;2.15;;
47365;SDS011;33105;47.964;7.982;2022-12-24T05:17:02;11.65;;;2.42;;
47365;SDS011;33105;47.964;7.982;2022-12-24T05:20:04;19.73;;;2.65;;
47365;SDS011;33105;47.964;7.982;2022-12-24T05:23:08;9.43;;;2.05;;
47365;SDS011;33105;47.964;7.982;2022-12-24T05:29:41;12.52;;;2.25;;
47365;SDS011;33105;47.964;7.982;2022-12-24T05:32:43;18.60;;;2.88;;
47365;SDS011;33105;47.964;7.982;2022-12-24T05:35:44;14.95;;;2.80;;
47365;SDS011;33105;47.964;7.982;2022-12-24T05:38:45;16.10;;;2.45;;
47365;SDS011;33105;47.964;7.982;2022-12-24T05:41:48;12.35;;;2.75;;
47365;SDS011;33105;47.964;7.982;2022-12-24T05:44:51;14.45;;;2.58;;
47365;SDS011;33105;47.964;7.982;2022-12-24T05:47:53;14.65;;;3.00;;
47365;SDS011;33105;47.964;7.982;2022-12-24T05:50:55;17.13;;;2.58;;
47365;SDS011;33105;47.964;7.982;2022-12-24T05:53:59;14.10;;;2.58;;
47365;SDS011;33105;47.964;7.982;2022-12-24T05:57:00;20.63;;;3.17;;
47365;SDS011;33105;47.964;7.982;2022-12-24T06:00:02;16.52;;;2.88;;
47365;SDS011;33105;47.964;7.982;2022-12-24T06:03:13;15.18;;;2.42;;
47365;SDS011;33105;47.964;7.982;2022-12-24T06:06:18;22.15;;;3.13;;
47365;SDS011;33105;47.964;7.982;2022-12-24T06:09:22;16.30;;;2.65;;
47365;SDS011;33105;47.964;7.982;2022-12-24T06:12:23;12.82;;;2.20;;
47365;SDS011;33105;47.964;7.982;2022-12-24T06:15:26;15.02;;;2.60;;
47365;SDS011;33105;47.964;7.982;2022-12-24T06:18:29;16.98;;;2.53;;
47365;SDS011;33105;47.964;7.982;2022-12-24T06:21:31;13.75;;;2.05;;
47365;SDS011;33105;47.964;7.982;2022-12-24T06:24:33;17.52;;;3.50;;
47365;SDS011;33105;47.964;7.982;2022-12-24T06:27:35;9.55;;;1.80;;
47365;SDS011;33105;47.964;7.982;2022-12-24T06:30:36;14.68;;;2.80;;
47365;SDS011;33105;47.964;7.982;2022-12-24T06:33:38;11.18;;;2.50;;
47365;SDS011;33105;47.964;7.982;2022-12-24T06:36:42;13.77;;;2.28;;
47365;SDS011;33105;47.964;7.982;2022-12-24T06:39:46;19.00;;;2.80;;
47365;SDS011;33105;47.964;7.982;2022-12-24T06:42:49;16.67;;;2.63;;
47365;SDS011;33105;47.964;7.982;2022-12-24T06:45:51;12.77;;;2.00;;
47365;SDS011;33105;47.964;7.982;2022-12-24T06:48:56;11.50;;;2.42;;
47365;SDS011;33105;47.964;7.982;2022-12-24T06:51:58;12.32;;;2.83;;
47365;SDS011;33105;47.964;7.982;2022-12-24T06:55:00;11.70;;;1.95;;
47365;SDS011;33105;47.964;7.982;2022-12-24T06:58:02;13.70;;;2.30;;
47365;SDS011;33105;47.964;7.982;2022-12-24T07:01:05;11.25;;;2.85;;
47365;SDS011;33105;47.964;7.982;2022-12-24T07:04:10;9.80;;;1.73;;
47365;SDS011;33105;47.964;7.982;2022-12-24T07:07:11;14.45;;;1.80;;
47365;SDS011;33105;47.964;7.982;2022-12-24T07:10:14;7.47;;;1.85;;
47365;SDS011;33105;47.964;7.982;2022-12-24T07:13:19;10.77;;;2.10;;
47365;SDS011;33105;47.964;7.982;2022-12-24T07:16:21;12.05;;;2.05;;
47365;SDS011;33105;47.964;7.982;2022-12-24T07:19:23;10.20;;;2.10;;
47365;SDS011;33105;47.964;7.982;2022-12-24T07:22:25;16.67;;;2.40;;
47365;SDS011;33105;47.964;7.982;2022-12-24T07:25:26;10.05;;;1.65;;
47365;SDS011;33105;47.964;7.982;2022-12-24T07:28:28;10.88;;;2.22;;
47365;SDS011;33105;47.964;7.982;2022-12-24T07:31:30;14.02;;;2.30;;
47365;SDS011;33105;47.964;7.982;2022-12-24T07:34:32;7.82;;;1.40;;
47365;SDS011;33105;47.964;7.982;2022-12-24T07:37:36;11.60;;;1.80;;
47365;SDS011;33105;47.964;7.982;2022-12-24T07:40:37;8.68;;;1.60;;
47365;SDS011;33105;47.964;7.982;2022-12-24T07:43:38;10.88;;;2.03;;
47365;SDS011;33105;47.964;7.982;2022-12-24T07:46:40;11.55;;;1.92;;
47365;SDS011;33105;47.964;7.982;2022-12-24T07:49:41;17.40;;;2.38;;
47365;SDS011;33105;47.964;7.982;2022-12-24T07:52:44;9.20;;;2.25;;
47365;SDS011;33105;47.964;7.982;2022-12-24T07:55:45;8.45;;;1.88;;
47365;SDS011;33105;47.964;7.982;2022-12-24T07:58:48;9.88;;;1.90;;
47365;SDS011;33105;47.964;7.982;2022-12-24T08:01:50;7.47;;;1.90;;
47365;SDS011;33105;47.964;7.982;2022-12-24T08:04:51;10.23;;;1.63;;
47365;SDS011;33105;47.964;7.982;2022-12-24T08:07:53;6.78;;;1.80;;
47365;SDS011;33105;47.964;7.982;2022-12-24T08:10:59;14.13;;;2.08;;
47365;SDS011;33105;47.964;7.982;2022-12-24T08:14:03;13.15;;;1.90;;
47365;SDS011;33105;47.964;7.982;2022-12-24T08:17:04;10.23;;;2.25;;
47365;SDS011;33105;47.964;7.982;2022-12-24T08:20:06;12.70;;;2.22;;
47365;SDS011;33105;47.964;7.982;2022-12-24T08:23:14;15.30;;;2.58;;
47365;SDS011;33105;47.964;7.982;2022-12-24T08:26:15;13.30;;;2.20;;
47365;SDS011;33105;47.964;7.982;2022-12-24T08:29:17;10.45;;;2.80;;
47365;SDS011;33105;47.964;7.982;2022-12-24T08:32:18;15.45;;;2.58;;
47365;SDS011;33105;47.964;7.982;2022-12-24T08:35:20;14.98;;;2.65;;
47365;SDS011;33105;47.964;7.982;2022-12-24T08:38:21;13.23;;;2.85;;
47365;SDS011;33105;47.964;7.982;2022-12-24T08:41:23;14.35;;;2.85;;
47365;SDS011;33105;47.964;7.982;2022-12-24T08:44:25;14.20;;;2.67;;
47365;SDS011;33105;47.964;7.982;2022-12-24T08:47:26;14.18;;;2.50;;
47365;SDS011;33105;47.964;7.982;2022-12-24T08:50:28;16.88;;;3.25;;
47365;SDS011;33105;47.964;7.982;2022-12-24T08:53:30;16.88;;;2.42;;
47365;SDS011;33105;47.964;7.982;2022-12-24T08:56:32;16.02;;;2.22;;
47365;SDS011;33105;47.964;7.982;2022-12-24T08:59:35;12.05;;;2.65;;
47365;SDS011;33105;47.964;7.982;2022-12-24T09:02:36;17.90;;;2.53;;
47365;SDS011;33105;47.964;7.982;2022-12-24T09:05:38;12.98;;;2.33;;
47365;SDS011;33105;47.964;7.982;2022-12-24T09:08:42;15.35;;;2.38;;
47365;SDS011;33105;47.964;7.982;2022-12-24T09:11:44;12.88;;;2.35;;
47365;SDS011;33105;47.964;7.982;2022-12-24T09:14:45;12.63;;;2.10;;
47365;SDS011;33105;47.964;7.982;2022-12-24T09:17:51;17.65;;;2.20;;
47365;SDS011;33105;47.964;7.982;2022-12-24T09:21:06;14.73;;;2.50;;
47365;SDS011;33105;47.964;7.982;2022-12-24T09:24:11;11.80;;;2.33;;
47365;SDS011;33105;47.964;7.982;2022-12-24T09:27:13;13.52;;;2.33;;
47365;SDS011;33105;47.964;7.982;2022-12-24T09:30:14;12.60;;;2.63;;
47365;SDS011;33105;47.964;7.982;2022-12-24T09:33:15;12.63;;;2.60;;
47365;SDS011;33105;47.964;7.982;2022-12-24T09:36:17;12.65;;;2.33;;
47365;SDS011;33105;47.964;7.982;2022-12-24T09:39:19;14.30;;;2.03;;
47365;SDS011;33105;47.964;7.982;2022-12-24T09:45:37;11.25;;;2.40;;
47365;SDS011;33105;47.964;7.982;2022-12-24T09:48:48;8.73;;;2.50;;
47365;SDS011;33105;47.964;7.982;2022-12-24T09:51:55;12.48;;;2.55;;
47365;SDS011;33105;47.964;7.982;2022-12-24T09:55:13;18.17;;;2.45;;
47365;SDS011;33105;47.964;7.982;2022-12-24T09:58:27;13.35;;;2.47;;
47365;SDS011;33105;47.964;7.982;2022-12-24T10:01:33;15.77;;;2.35;;
47365;SDS011;33105;47.964;7.982;2022-12-24T10:04:35;17.00;;;2.63;;
47365;SDS011;33105;47.964;7.982;2022-12-24T10:10:53;13.82;;;2.55;;
47365;SDS011;33105;47.964;7.982;2022-12-24T10:14:10;15.48;;;3.22;;
47365;SDS011;33105;47.964;7.982;2022-12-24T10:17:35;13.85;;;2.58;;
47365;SDS011;33105;47.964;7.982;2022-12-24T10:20:58;16.50;;;2.30;;
47365;SDS011;33105;47.964;7.982;2022-12-24T10:24:06;10.05;;;2.15;;
47365;SDS011;33105;47.964;7.982;2022-12-24T10:27:20;10.20;;;2.58;;
47365;SDS011;33105;47.964;7.982;2022-12-24T10:30:27;15.38;;;4.93;;
47365;SDS011;33105;47.964;7.982;2022-12-24T10:33:43;11.98;;;2.60;;
47365;SDS011;33105;47.964;7.982;2022-12-24T10:36:45;9.95;;;2.40;;
47365;SDS011;33105;47.964;7.982;2022-12-24T10:39:47;10.50;;;2.67;;
47365;SDS011;33105;47.964;7.982;2022-12-24T10:42:48;11.35;;;2.08;;
47365;SDS011;33105;47.964;7.982;2022-12-24T10:45:52;9.27;;;2.08;;
47365;SDS011;33105;47.964;7.982;2022-12-24T10:48:57;9.00;;;1.98;;
47365;SDS011;33105;47.964;7.982;2022-12-24T10:52:05;11.70;;;2.47;;
47365;SDS011;33105;47.964;7.982;2022-12-24T10:55:22;7.82;;;1.88;;
47365;SDS011;33105;47.964;7.982;2022-12-24T10:58:24;10.52;;;2.25;;
47365;SDS011;33105;47.964;7.982;2022-12-24T11:01:45;6.57;;;1.40;;
47365;SDS011;33105;47.964;7.982;2022-12-24T11:04:47;7.88;;;1.73;;
47365;SDS011;33105;47.964;7.982;2022-12-24T11:07:58;7.50;;;1.40;;
47365;SDS011;33105;47.964;7.982;2022-12-24T11:11:04;8.10;;;1.60;;
47365;SDS011;33105;47.964;7.982;2022-12-24T11:14:15;7.78;;;1.80;;
47365;SDS011;33105;47.964;7.982;2022-12-24T11:17:19;6.70;;;1.40;;
47365;SDS011;33105;47.964;7.982;2022-12-24T11:20:24;4.97;;;1.90;;
47365;SDS011;33105;47.964;7.982;2022-12-24T11:23:31;9.88;;;1.55;;
47365;SDS011;33105;47.964;7.982;2022-12-24T11:26:33;8.18;;;1.20;;
47365;SDS011;33105;47.964;7.982;2022-12-24T11:29:36;4.60;;;1.10;;
47365;SDS011;33105;47.964;7.982;2022-12-24T11:32:37;7.90;;;1.38;;
47365;SDS011;33105;47.964;7.982;2022-12-24T11:35:40;10.10;;;1.55;;
47365;SDS011;33105;47.964;7.982;2022-12-24T11:38:53;4.55;;;1.08;;
47365;SDS011;33105;47.964;7.982;2022-12-24T11:41:57;6.10;;;1.40;;
47365;SDS011;33105;47.964;7.982;2022-12-24T11:45:02;5.38;;;1.55;;
47365;SDS011;33105;47.964;7.982;2022-12-24T11:48:22;5.00;;;1.10;;
47365;SDS011;33105;47.964;7.982;2022-12-24T11:51:33;2.72;;;1.05;;
47365;SDS011;33105;47.964;7.982;2022-12-24T11:54:50;8.80;;;1.38;;
47365;SDS011;33105;47.964;7.982;2022-12-24T12:01:29;5.35;;;1.50;;
47365;SDS011;33105;47.964;7.982;2022-12-24T12:04:39;5.20;;;1.50;;
47365;SDS011;33105;47.964;7.982;2022-12-24T12:07:49;5.97;;;1.27;;
47365;SDS011;33105;47.964;7.982;2022-12-24T12:10:55;7.03;;;1.35;;
47365;SDS011;33105;47.964;7.982;2022-12-24T12:14:00;5.80;;;1.13;;
47365;SDS011;33105;47.964;7.982;2022-12-24T12:23:46;4.47;;;1.10;;
47365;SDS011;33105;47.964;7.982;2022-12-24T12:27:36;4.85;;;1.38;;
47365;SDS011;33105;47.964;7.982;2022-12-24T12:30:29;4.70;;;1.27;;
47365;SDS011;33105;47.964;7.982;2022-12-24T12:33:34;6.05;;;1.13;;
47365;SDS011;33105;47.964;7.982;2022-12-24T12:40:15;3.75;;;0.88;;
47365;SDS011;33105;47.964;7.982;2022-12-24T12:43:28;2.85;;;0.80;;
47365;SDS011;33105;47.964;7.982;2022-12-24T12:56:55;4.25;;;1.40;;
47365;SDS011;33105;47.964;7.982;2022-12-24T13:03:18;4.53;;;0.98;;
47365;SDS011;33105;47.964;7.982;2022-12-24T13:06:45;4.63;;;1.00;;
47365;SDS011;33105;47.964;7.982;2022-12-24T13:20:45;4.63;;;1.20;;
47365;SDS011;33105;47.964;7.982;2022-12-24T13:23:55;7.93;;;1.40;;
47365;SDS011;33105;47.964;7.982;2022-12-24T13:36:59;5.75;;;1.10;;
47365;SDS011;33105;47.964;7.982;2022-12-24T13:43:10;3.95;;;1.10;;
47365;SDS011;33105;47.964;7.982;2022-12-24T13:46:13;7.47;;;1.20;;
47365;SDS011;33105;47.964;7.982;2022-12-24T13:49:45;4.50;;;1.25;;
47365;SDS011;33105;47.964;7.982;2022-12-24T13:52:52;6.70;;;0.90;;
47365;SDS011;33105;47.964;7.982;2022-12-24T13:56:02;4.20;;;1.00;;
47365;SDS011;33105;47.964;7.982;2022-12-24T13:59:12;6.28;;;1.30;;
47365;SDS011;33105;47.964;7.982;2022-12-24T14:02:24;4.05;;;1.02;;
47365;SDS011;33105;47.964;7.982;2022-12-24T14:06:05;5.88;;;1.50;;
47365;SDS011;33105;47.964;7.982;2022-12-24T14:19:09;4.40;;;2.05;;
47365;SDS011;33105;47.964;7.982;2022-12-24T14:22:22;3.70;;;1.55;;
47365;SDS011;33105;47.964;7.982;2022-12-24T14:25:28;4.65;;;1.48;;
47365;SDS011;33105;47.964;7.982;2022-12-24T14:28:38;5.10;;;1.27;;
47365;SDS011;33105;47.964;7.982;2022-12-24T14:31:52;3.55;;;0.98;;
47365;SDS011;33105;47.964;7.982;2022-12-24T14:38:16;6.45;;;1.52;;
47365;SDS011;33105;47.964;7.982;2022-12-24T14:54:56;3.30;;;1.30;;
47365;SDS011;33105;47.964;7.982;2022-12-24T15:01:32;5.72;;;1.15;;
47365;SDS011;33105;47.964;7.982;2022-12-24T15:04:36;3.83;;;1.10;;
47365;SDS011;33105;47.964;7.982;2022-12-24T15:07:39;4.18;;;1.10;;
47365;SDS011;33105;47.964;7.982;2022-12-24T15:10:45;4.78;;;1.50;;
47365;SDS011;33105;47.964;7.982;2022-12-24T15:13:53;2.67;;;1.00;;
47365;SDS011;33105;47.964;7.982;2022-12-24T15:17:03;5.18;;;1.23;;
47365;SDS011;33105;47.964;7.982;2022-12-24T15:20:09;7.97;;;2.20;;
47365;SDS011;33105;47.964;7.982;2022-12-24T15:23:18;3.67;;;1.23;;
47365;SDS011;33105;47.964;7.982;2022-12-24T15:29:31;6.05;;;2.15;;
47365;SDS011;33105;47.964;7.982;2022-12-24T15:32:39;3.38;;;1.10;;
47365;SDS011;33105;47.964;7.982;2022-12-24T15:35:47;3.85;;;0.90;;
47365;SDS011;33105;47.964;7.982;2022-12-24T15:38:53;4.55;;;1.30;;
47365;SDS011;33105;47.964;7.982;2022-12-24T15:41:57;5.70;;;1.92;;
47365;SDS011;33105;47.964;7.982;2022-12-24T15:45:15;7.32;;;3.47;;
47365;SDS011;33105;47.964;7.982;2022-12-24T15:48:24;2.58;;;1.27;;
47365;SDS011;33105;47.964;7.982;2022-12-24T15:51:30;16.13;;;10.02;;
47365;SDS011;33105;47.964;7.982;2022-12-24T15:54:36;8.00;;;5.70;;
47365;SDS011;33105;47.964;7.982;2022-12-24T15:57:37;7.90;;;2.08;;
47365;SDS011;33105;47.964;7.982;2022-12-24T16:00:40;4.75;;;1.30;;
47365;SDS011;33105;47.964;7.982;2022-12-24T16:07:00;2.60;;;1.10;;
47365;SDS011;33105;47.964;7.982;2022-12-24T16:10:03;3.38;;;1.15;;
47365;SDS011;33105;47.964;7.982;2022-12-24T16:13:19;5.97;;;0.90;;
47365;SDS011;33105;47.964;7.982;2022-12-24T16:16:31;3.10;;;1.23;;
47365;SDS011;33105;47.964;7.982;2022-12-24T16:19:45;3.63;;;1.40;;
47365;SDS011;33105;47.964;7.982;2022-12-24T16:22:48;5.60;;;2.45;;
47365;SDS011;33105;47.964;7.982;2022-12-24T16:25:50;5.80;;;2.63;;
47365;SDS011;33105;47.964;7.982;2022-12-24T16:28:54;5.38;;;2.00;;
47365;SDS011;33105;47.964;7.982;2022-12-24T16:31:56;9.85;;;2.50;;
47365;SDS011;33105;47.964;7.982;2022-12-24T16:35:04;2.97;;;1.20;;
47365;SDS011;33105;47.964;7.982;2022-12-24T16:38:08;4.18;;;0.70;;
47365;SDS011;33105;47.964;7.982;2022-12-24T16:41:09;0.95;;;0.40;;
47365;SDS011;33105;47.964;7.982;2022-12-24T16:44:10;2.75;;;0.60;;
47365;SDS011;33105;47.964;7.982;2022-12-24T16:47:19;1.55;;;0.52;;
47365;SDS011;33105;47.964;7.982;2022-12-24T16:50:24;1.63;;;0.57;;
47365;SDS011;33105;47.964;7.982;2022-12-24T16:53:26;2.30;;;0.40;;
47365;SDS011;33105;47.964;7.982;2022-12-24T16:56:28;1.33;;;0.40;;
47365;SDS011;33105;47.964;7.982;2022-12-24T16:59:31;1.70;;;0.70;;
47365;SDS011;33105;47.964;7.982;2022-12-24T17:02:33;0.82;;;0.50;;
47365;SDS011;33105;47.964;7.982;2022-12-24T17:05:44;1.75;;;0.40;;
47365;SDS011;33105;47.964;7.982;2022-12-24T17:08:47;1.25;;;0.47;;
47365;SDS011;33105;47.964;7.982;2022-12-24T17:11:49;1.10;;;0.40;;
47365;SDS011;33105;47.964;7.982;2022-12-24T17:14:52;1.27;;;0.32;;
47365;SDS011;33105;47.964;7.982;2022-12-24T17:17:54;2.50;;;0.60;;
47365;SDS011;33105;47.964;7.982;2022-12-24T17:21:00;1.90;;;0.40;;
47365;SDS011;33105;47.964;7.982;2022-12-24T17:24:04;0.90;;;0.70;;
47365;SDS011;33105;47.964;7.982;2022-12-24T17:27:13;4.32;;;2.88;;
47365;SDS011;33105;47.964;7.982;2022-12-24T17:30:16;5.28;;;2.55;;
47365;SDS011;33105;47.964;7.982;2022-12-24T17:33:18;3.33;;;2.03;;
47365;SDS011;33105;47.964;7.982;2022-12-24T17:36:20;2.35;;;1.60;;
47365;SDS011;33105;47.964;7.982;2022-12-24T17:39:25;2.35;;;0.90;;
47365;SDS011;33105;47.964;7.982;2022-12-24T17:42:28;2.08;;;1.15;;
47365;SDS011;33105;47.964;7.982;2022-12-24T17:45:39;4.53;;;1.75;;
47365;SDS011;33105;47.964;7.982;2022-12-24T17:48:44;5.95;;;1.60;;
47365;SDS011;33105;47.964;7.982;2022-12-24T17:51:49;5.88;;;2.15;;
47365;SDS011;33105;47.964;7.982;2022-12-24T17:54:50;5.15;;;2.10;;
47365;SDS011;33105;47.964;7.982;2022-12-24T17:57:52;4.43;;;2.03;;
47365;SDS011;33105;47.964;7.982;2022-12-24T18:00:56;3.50;;;1.88;;
47365;SDS011;33105;47.964;7.982;2022-12-24T18:04:01;4.47;;;2.10;;
47365;SDS011;33105;47.964;7.982;2022-12-24T18:07:03;6.88;;;2.80;;
47365;SDS011;33105;47.964;7.982;2022-12-24T18:10:07;2.25;;;1.60;;
47365;SDS011;33105;47.964;7.982;2022-12-24T18:13:09;6.45;;;3.47;;
47365;SDS011;33105;47.964;7.982;2022-12-24T18:16:21;9.73;;;5.53;;
47365;SDS011;33105;47.964;7.982;2022-12-24T18:19:30;5.05;;;2.30;;
47365;SDS011;33105;47.964;7.982;2022-12-24T18:22:32;6.50;;;2.42;;
47365;SDS011;33105;47.964;7.982;2022-12-24T18:25:34;3.45;;;1.70;;
47365;SDS011;33105;47.964;7.982;2022-12-24T18:28:38;4.07;;;2.30;;
47365;SDS011;33105;47.964;7.982;2022-12-24T18:31:47;5.10;;;2.80;;
47365;SDS011;33105;47.964;7.982;2022-12-24T18:34:49;12.63;;;3.00;;
47365;SDS011;33105;47.964;7.982;2022-12-24T18:37:54;11.55;;;3.05;;
47365;SDS011;33105;47.964;7.982;2022-12-24T18:41:01;8.48;;;3.05;;
47365;SDS011;33105;47.964;7.982;2022-12-24T18:44:07;5.95;;;2.67;;
47365;SDS011;33105;47.964;7.982;2022-12-24T18:47:09;9.07;;;4.05;;
47365;SDS011;33105;47.964;7.982;2022-12-24T18:50:12;2.60;;;1.55;;
47365;SDS011;33105;47.964;7.982;2022-12-24T18:53:13;3.47;;;2.05;;
47365;SDS011;33105;47.964;7.982;2022-12-24T18:56:18;3.30;;;1.50;;
47365;SDS011;33105;47.964;7.982;2022-12-24T18:59:22;3.80;;;1.08;;
47365;SDS011;33105;47.964;7.982;2022-12-24T19:02:24;3.78;;;1.48;;
47365;SDS011;33105;47.964;7.982;2022-12-24T19:05:27;5.32;;;1.33;;
47365;SDS011;33105;47.964;7.982;2022-12-24T19:08:32;5.68;;;3.17;;
47365;SDS011;33105;47.964;7.982;2022-12-24T19:11:35;8.25;;;2.13;;
47365;SDS011;33105;47.964;7.982;2022-12-24T19:14:42;2.92;;;1.48;;
47365;SDS011;33105;47.964;7.982;2022-12-24T19:17:52;5.63;;;1.80;;
47365;SDS011;33105;47.964;7.982;2022-12-24T19:20:54;7.80;;;2.42;;
47365;SDS011;33105;47.964;7.982;2022-12-24T19:23:57;5.15;;;2.05;;
47365;SDS011;33105;47.964;7.982;2022-12-24T19:26:59;4.80;;;2.10;;
47365;SDS011;33105;47.964;7.982;2022-12-24T19:30:03;4.25;;;1.70;;
47365;SDS011;33105;47.964;7.982;2022-12-24T19:33:06;4.07;;;1.58;;
47365;SDS011;33105;47.964;7.982;2022-12-24T19:36:09;5.68;;;1.52;;
47365;SDS011;33105;47.964;7.982;2022-12-24T19:39:11;6.75;;;2.50;;
47365;SDS011;33105;47.964;7.982;2022-12-24T19:42:16;8.32;;;2.72;;
47365;SDS011;33105;47.964;7.982;2022-12-24T19:45:18;8.90;;;4.43;;
47365;SDS011;33105;47.964;7.982;2022-12-24T19:48:24;6.70;;;4.05;;
47365;SDS011;33105;47.964;7.982;2022-12-24T19:51:32;7.38;;;3.42;;
47365;SDS011;33105;47.964;7.982;2022-12-24T19:54:34;4.90;;;2.20;;
47365;SDS011;33105;47.964;7.982;2022-12-24T19:57:37;3.75;;;1.80;;
47365;SDS011;33105;47.964;7.982;2022-12-24T20:00:40;4.50;;;1.92;;
47365;SDS011;33105;47.964;7.982;2022-12-24T20:03:45;2.90;;;1.77;;
47365;SDS011;33105;47.964;7.982;2022-12-24T20:06:48;4.18;;;1.90;;
47365;SDS011;33105;47.964;7.982;2022-12-24T20:09:49;3.72;;;1.35;;
47365;SDS011;33105;47.964;7.982;2022-12-24T20:12:51;3.05;;;1.67;;
47365;SDS011;33105;47.964;7.982;2022-12-24T20:19:12;3.17;;;1.25;;
47365;SDS011;33105;47.964;7.982;2022-12-24T20:22:20;3.70;;;2.50;;
47365;SDS011;33105;47.964;7.982;2022-12-24T20:25:23;3.17;;;2.08;;
47365;SDS011;33105;47.964;7.982;2022-12-24T20:28:25;3.90;;;2.17;;
47365;SDS011;33105;47.964;7.982;2022-12-24T20:31:29;3.47;;;1.55;;
47365;SDS011;33105;47.964;7.982;2022-12-24T20:34:30;2.63;;;1.52;;